createdAt,value
2022-09-12T00:01:11.428Z,1.75
2022-09-12T00:03:40.692Z,1.55
2022-09-12T00:06:11.090Z,1.30
2022-09-12T00:08:39.793Z,1.27
2022-09-12T00:11:09.968Z,1.17
2022-09-12T00:13:41.979Z,1.60
2022-09-12T00:16:16.266Z,1.20
2022-09-12T00:18:46.096Z,1.63
2022-09-12T00:21:14.790Z,1.60
2022-09-12T00:23:42.857Z,1.55
2022-09-12T00:26:11.321Z,1.65
2022-09-12T00:28:41.881Z,1.63
2022-09-12T00:31:12.028Z,1.70
2022-09-12T00:33:40.790Z,1.50
2022-09-12T00:36:11.361Z,1.55
2022-09-12T00:38:42.208Z,1.27
2022-09-12T00:41:16.470Z,1.35
2022-09-12T00:43:48.262Z,1.50
2022-09-12T00:46:27.617Z,1.52
2022-09-12T00:49:01.086Z,1.38
2022-09-12T00:51:33.310Z,1.58
2022-09-12T00:54:04.153Z,1.50
2022-09-12T00:56:32.670Z,1.30
2022-09-12T00:59:06.343Z,1.38
2022-09-12T01:01:35.150Z,1.20
2022-09-12T01:04:03.966Z,1.40
2022-09-12T01:06:37.664Z,1.85
2022-09-12T01:09:06.476Z,1.50
2022-09-12T01:11:38.309Z,1.60
2022-09-12T01:14:08.615Z,1.80
2022-09-12T01:16:38.073Z,1.40
2022-09-12T01:19:28.240Z,1.45
2022-09-12T01:22:12.088Z,1.40
2022-09-12T01:24:55.827Z,1.63
2022-09-12T01:27:48.163Z,1.00
2022-09-12T01:30:49.366Z,1.88
2022-09-12T01:33:46.569Z,1.95
2022-09-12T01:36:34.620Z,1.88
2022-09-12T01:39:05.460Z,1.42
2022-09-12T01:41:45.960Z,1.60
2022-09-12T01:44:24.352Z,2.05
2022-09-12T01:46:59.336Z,1.40
2022-09-12T01:49:34.246Z,2.10
2022-09-12T01:52:07.459Z,1.80
2022-09-12T01:54:40.004Z,1.98
2022-09-12T01:57:15.052Z,1.58
2022-09-12T01:59:48.803Z,2.15
2022-09-12T02:04:52.871Z,1.80
2022-09-12T02:07:22.636Z,1.75
2022-09-12T02:09:55.486Z,2.00
2022-09-12T02:12:29.159Z,1.60
2022-09-12T02:15:01.224Z,1.50
2022-09-12T02:17:33.742Z,1.80
2022-09-12T02:20:07.576Z,1.73
2022-09-12T02:25:08.738Z,1.45
2022-09-12T02:27:41.444Z,1.30
2022-09-12T02:30:10.993Z,1.55
2022-09-12T02:32:45.000Z,1.80
2022-09-12T02:35:23.808Z,2.00
2022-09-12T02:37:59.737Z,1.92
2022-09-12T02:40:27.925Z,1.90
2022-09-12T02:42:56.406Z,2.30
2022-09-12T02:45:24.685Z,2.00
2022-09-12T02:47:59.693Z,2.50
2022-09-12T02:50:28.113Z,2.25
2022-09-12T02:52:59.926Z,2.25
2022-09-12T02:55:28.174Z,2.72
2022-09-12T02:57:56.187Z,2.40
2022-09-12T03:00:25.656Z,2.58
2022-09-12T03:03:14.889Z,2.60
2022-09-12T03:05:48.689Z,2.17
2022-09-12T03:11:11.241Z,2.25
2022-09-12T03:13:51.831Z,2.35
2022-09-12T03:16:29.683Z,2.10
2022-09-12T03:19:04.516Z,2.47
2022-09-12T03:21:37.964Z,2.88
2022-09-12T03:24:14.401Z,2.03
2022-09-12T03:26:49.432Z,2.05
2022-09-12T03:29:19.277Z,2.20
2022-09-12T03:31:52.384Z,2.58
2022-09-12T03:34:24.531Z,2.05
2022-09-12T03:36:53.070Z,1.85
2022-09-12T03:39:21.139Z,2.10
2022-09-12T03:41:49.139Z,2.03
2022-09-12T03:44:17.386Z,2.17
2022-09-12T03:46:45.616Z,2.53
2022-09-12T03:49:13.787Z,1.85
2022-09-12T03:51:43.671Z,2.17
2022-09-12T03:54:12.395Z,2.20
2022-09-12T03:56:41.694Z,2.10
2022-09-12T03:59:09.766Z,2.00
2022-09-12T04:01:38.649Z,1.90
2022-09-12T04:04:06.652Z,2.15
2022-09-12T04:06:34.641Z,2.30
2022-09-12T04:09:04.689Z,1.55
2022-09-12T04:11:32.801Z,2.30
2022-09-12T04:14:00.800Z,2.05
2022-09-12T04:16:28.853Z,2.20
2022-09-12T04:18:56.850Z,2.10
2022-09-12T04:21:24.909Z,2.33
2022-09-12T04:23:53.238Z,2.38
2022-09-12T04:26:22.985Z,2.50
2022-09-12T04:28:56.318Z,2.08
2022-09-12T04:31:25.000Z,2.38
2022-09-12T04:33:56.074Z,2.72
2022-09-12T04:36:24.244Z,2.50
2022-09-12T04:38:52.877Z,2.88
2022-09-12T04:41:24.091Z,2.78
2022-09-12T04:43:54.352Z,2.83
2022-09-12T04:46:22.554Z,2.63
2022-09-12T04:48:55.900Z,2.95
2022-09-12T04:51:28.001Z,3.00
2022-09-12T04:53:58.228Z,3.05
2022-09-12T04:56:28.482Z,2.90
2022-09-12T04:58:58.864Z,3.45
2022-09-12T05:01:28.214Z,2.78
2022-09-12T05:03:57.381Z,2.50
2022-09-12T05:06:27.092Z,2.55
2022-09-12T05:08:56.064Z,2.95
2022-09-12T05:11:36.738Z,2.30
2022-09-12T05:14:11.315Z,2.38
2022-09-12T05:16:39.461Z,2.50
2022-09-12T05:19:07.769Z,1.90
2022-09-12T05:21:35.765Z,2.13
2022-09-12T05:24:06.270Z,2.58
2022-09-12T05:26:34.395Z,2.08
2022-09-12T05:29:02.400Z,2.47
2022-09-12T05:31:31.825Z,2.22
2022-09-12T05:33:59.785Z,2.30
2022-09-12T05:36:29.966Z,2.42
2022-09-12T05:38:58.388Z,2.50
2022-09-12T05:41:27.717Z,2.13
2022-09-12T05:43:57.147Z,1.88
2022-09-12T05:46:27.341Z,2.28
2022-09-12T05:48:57.390Z,2.33
2022-09-12T05:51:26.976Z,2.38
2022-09-12T05:53:56.959Z,2.88
2022-09-12T05:56:26.530Z,3.42
2022-09-12T05:58:56.263Z,4.53
2022-09-12T06:01:25.260Z,4.40
2022-09-12T06:03:55.377Z,5.32
2022-09-12T06:06:26.505Z,4.80
2022-09-12T06:08:57.931Z,6.30
2022-09-12T06:11:28.716Z,4.72
2022-09-12T06:13:58.134Z,5.78
2022-09-12T06:16:28.390Z,5.15
2022-09-12T06:18:57.970Z,5.93
2022-09-12T06:21:28.483Z,5.50
2022-09-12T06:23:58.716Z,6.22
2022-09-12T06:26:27.546Z,3.97
2022-09-12T06:28:57.218Z,5.40
2022-09-12T06:31:26.931Z,3.85
2022-09-12T06:33:59.755Z,5.03
2022-09-12T06:36:31.727Z,5.07
2022-09-12T06:39:01.999Z,5.85
2022-09-12T06:41:31.262Z,3.95
2022-09-12T06:44:00.323Z,4.22
2022-09-12T06:46:29.253Z,4.38
2022-09-12T06:48:57.706Z,4.22
2022-09-12T06:51:26.370Z,3.55
2022-09-12T06:53:57.013Z,3.80
2022-09-12T06:56:26.531Z,4.78
2022-09-12T06:58:56.908Z,7.05
2022-09-12T07:01:26.615Z,4.00
2022-09-12T07:03:56.878Z,7.78
2022-09-12T07:06:29.868Z,4.97
2022-09-12T07:09:00.494Z,9.27
2022-09-12T07:11:31.907Z,8.65
2022-09-12T07:14:01.552Z,5.07
2022-09-12T07:16:30.330Z,6.55
2022-09-12T07:19:01.458Z,9.95
2022-09-12T07:21:30.604Z,9.68
2022-09-12T07:24:00.092Z,4.88
2022-09-12T07:26:29.291Z,3.85
2022-09-12T07:29:18.725Z,7.70
2022-09-12T07:31:47.298Z,11.45
2022-09-12T07:34:15.352Z,7.65
2022-09-12T07:36:43.381Z,12.98
2022-09-12T07:39:12.781Z,13.32
2022-09-12T07:41:40.797Z,6.60
2022-09-12T07:44:08.900Z,13.40
2022-09-12T07:46:36.884Z,11.43
2022-09-12T07:49:04.979Z,7.68
2022-09-12T07:51:33.143Z,6.95
2022-09-12T07:54:01.357Z,11.52
2022-09-12T07:56:34.624Z,12.95
2022-09-12T07:59:05.138Z,8.85
2022-09-12T08:01:33.390Z,8.82
2022-09-12T08:04:01.756Z,12.60
2022-09-12T08:06:33.869Z,10.35
2022-09-12T08:09:01.969Z,7.97
2022-09-12T08:11:31.552Z,8.75
2022-09-12T08:14:00.184Z,11.23
2022-09-12T08:16:31.285Z,9.65
2022-09-12T08:18:59.388Z,12.80
2022-09-12T08:21:29.464Z,11.07
2022-09-12T08:23:59.374Z,12.07
2022-09-12T08:26:29.022Z,10.05
2022-09-12T08:28:58.706Z,11.82
2022-09-12T08:31:28.630Z,12.68
2022-09-12T08:33:57.520Z,12.02
2022-09-12T08:36:27.788Z,12.35
2022-09-12T08:39:00.044Z,12.02
2022-09-12T08:41:32.967Z,13.20
2022-09-12T08:44:18.500Z,11.35
2022-09-12T08:46:53.287Z,12.50
2022-09-12T08:49:28.546Z,12.15
2022-09-12T08:51:59.338Z,8.32
2022-09-12T08:54:30.302Z,11.45
2022-09-12T08:57:03.302Z,12.27
2022-09-12T08:59:39.295Z,11.40
2022-09-12T09:02:29.803Z,9.50
2022-09-12T09:05:11.981Z,10.35
2022-09-12T09:08:11.512Z,11.63
2022-09-12T09:10:50.438Z,11.40
2022-09-12T09:13:47.317Z,12.07
2022-09-12T09:16:26.405Z,12.00
2022-09-12T09:18:56.922Z,11.48
2022-09-12T09:21:29.494Z,6.70
2022-09-12T09:24:05.213Z,11.05
2022-09-12T09:26:43.082Z,8.73
2022-09-12T09:29:19.502Z,6.32
2022-09-12T09:31:53.136Z,8.63
2022-09-12T09:36:58.301Z,9.05
2022-09-12T09:39:37.701Z,6.57
2022-09-12T09:42:24.933Z,5.78
2022-09-12T09:44:56.102Z,5.57
2022-09-12T09:47:25.558Z,6.93
2022-09-12T09:49:53.630Z,4.30
2022-09-12T09:52:28.624Z,4.47
2022-09-12T09:54:59.090Z,4.63
2022-09-12T09:57:41.177Z,3.90
2022-09-12T10:00:30.738Z,5.32
2022-09-12T10:03:27.542Z,3.00
2022-09-12T10:05:58.861Z,4.10
2022-09-12T10:08:28.783Z,3.97
2022-09-12T10:11:08.114Z,4.25
2022-09-12T10:13:40.670Z,4.40
2022-09-12T10:16:20.165Z,3.40
2022-09-12T10:18:52.623Z,2.80
2022-09-12T10:21:30.318Z,2.58
2022-09-12T10:24:06.307Z,3.00
2022-09-12T10:26:38.847Z,2.53
2022-09-12T10:29:20.045Z,2.22
2022-09-12T10:31:52.470Z,2.17
2022-09-12T10:34:27.956Z,2.50
2022-09-12T10:37:01.820Z,2.63
2022-09-12T10:39:31.193Z,2.30
2022-09-12T10:41:59.342Z,2.25
2022-09-12T10:44:29.722Z,1.83
2022-09-12T10:46:59.175Z,2.55
2022-09-12T10:49:31.305Z,2.17
2022-09-12T10:52:17.935Z,3.67
2022-09-12T10:54:46.659Z,2.63
2022-09-12T10:57:43.119Z,2.47
2022-09-12T11:00:17.890Z,2.75
2022-09-12T11:02:52.704Z,2.45
2022-09-12T11:05:46.351Z,2.20
2022-09-12T11:08:42.357Z,3.10
2022-09-12T11:11:25.346Z,2.92
2022-09-12T11:14:11.032Z,2.87
2022-09-12T11:16:50.220Z,2.50
2022-09-12T11:19:35.121Z,2.38
2022-09-12T11:22:18.396Z,2.13
2022-09-12T11:25:15.082Z,2.60
2022-09-12T11:27:59.509Z,1.60
2022-09-12T11:30:31.957Z,2.17
2022-09-12T11:33:26.173Z,1.70
2022-09-12T11:35:57.461Z,1.95
2022-09-12T11:38:47.401Z,1.85
2022-09-12T11:41:21.138Z,1.30
2022-09-12T11:43:54.042Z,1.70
2022-09-12T11:46:26.222Z,1.92
2022-09-12T11:48:59.755Z,2.05
2022-09-12T11:54:13.248Z,1.90
2022-09-12T11:56:46.113Z,3.03
2022-09-12T11:59:24.924Z,4.18
2022-09-12T12:02:00.208Z,3.58
2022-09-12T12:04:39.091Z,4.32
2022-09-12T12:07:09.452Z,2.22
2022-09-12T12:09:47.632Z,2.70
2022-09-12T12:12:20.508Z,2.58
2022-09-12T12:14:52.241Z,3.58
2022-09-12T12:17:22.600Z,3.40
2022-09-12T12:20:06.529Z,2.08
2022-09-12T12:22:36.501Z,2.25
2022-09-12T12:25:29.609Z,2.85
2022-09-12T12:28:01.939Z,2.83
2022-09-12T12:31:02.140Z,1.40
2022-09-12T12:34:03.436Z,2.10
2022-09-12T12:36:40.517Z,1.88
2022-09-12T12:39:45.011Z,1.70
2022-09-12T12:43:05.059Z,1.70
2022-09-12T12:46:04.845Z,1.30
2022-09-12T12:48:37.360Z,1.55
2022-09-12T12:51:38.049Z,1.52
2022-09-12T12:54:20.592Z,1.45
2022-09-12T12:56:48.711Z,1.20
2022-09-12T12:59:23.180Z,1.35
2022-09-12T13:01:55.521Z,1.35
2022-09-12T13:04:26.511Z,1.30
2022-09-12T13:07:07.683Z,1.20
2022-09-12T13:09:45.035Z,1.52
2022-09-12T13:12:20.552Z,0.70
2022-09-12T13:14:56.207Z,0.90
2022-09-12T13:17:28.821Z,0.70
2022-09-12T13:20:26.651Z,0.63
2022-09-12T13:22:54.851Z,0.82
2022-09-12T13:25:29.846Z,0.70
2022-09-12T13:27:59.882Z,0.80
2022-09-12T13:30:30.313Z,0.82
2022-09-12T13:33:00.429Z,0.52
2022-09-12T13:35:38.827Z,1.00
2022-09-12T13:38:17.176Z,0.95
2022-09-12T13:41:02.279Z,0.60
2022-09-12T13:43:39.108Z,0.60
2022-09-12T13:46:11.114Z,0.68
2022-09-12T13:48:41.189Z,0.65
2022-09-12T13:51:16.951Z,0.70
2022-09-12T13:53:48.197Z,0.73
2022-09-12T13:56:18.856Z,0.50
2022-09-12T13:58:55.647Z,0.50
2022-09-12T14:01:26.654Z,0.80
2022-09-12T14:04:13.213Z,0.60
2022-09-12T14:06:49.703Z,0.43
2022-09-12T14:09:25.380Z,0.77
2022-09-12T14:11:54.288Z,0.60
2022-09-12T14:14:29.447Z,0.77
2022-09-12T14:16:59.128Z,0.75
2022-09-12T14:19:29.375Z,0.80
2022-09-12T14:21:58.453Z,0.63
2022-09-12T14:24:26.926Z,0.47
2022-09-12T14:26:57.091Z,0.70
2022-09-12T14:29:26.413Z,0.63
2022-09-12T14:32:07.129Z,0.40
2022-09-12T14:34:35.152Z,0.40
2022-09-12T14:37:07.760Z,0.50
2022-09-12T14:39:41.595Z,0.30
2022-09-12T14:42:17.688Z,0.82
2022-09-12T14:44:56.158Z,0.75
2022-09-12T14:47:29.390Z,0.40
2022-09-12T14:49:57.448Z,0.30
2022-09-12T14:52:28.916Z,0.40
2022-09-12T14:54:58.658Z,0.60
2022-09-12T14:57:36.582Z,0.40
2022-09-12T15:00:20.991Z,0.47
2022-09-12T15:02:51.253Z,0.50
2022-09-12T15:05:25.924Z,0.40
2022-09-12T15:08:00.314Z,0.32
2022-09-12T15:10:32.488Z,0.30
2022-09-12T15:13:21.345Z,0.30
2022-09-12T15:15:52.020Z,0.60
2022-09-12T15:18:22.338Z,0.45
2022-09-12T15:20:52.971Z,0.38
2022-09-12T15:23:43.779Z,0.30
2022-09-12T15:26:14.118Z,0.40
2022-09-12T15:28:42.374Z,0.35
2022-09-12T15:31:18.699Z,0.20
2022-09-12T15:33:48.328Z,0.40
2022-09-12T15:36:18.835Z,0.30
2022-09-12T15:38:47.796Z,0.25
2022-09-12T15:41:18.485Z,0.20
2022-09-12T15:43:46.831Z,0.30
2022-09-12T15:46:18.072Z,0.40
2022-09-12T15:48:56.659Z,0.45
2022-09-12T15:51:28.907Z,0.20
2022-09-12T15:53:57.806Z,0.40
2022-09-12T15:56:28.481Z,0.30
2022-09-12T15:58:59.798Z,0.30
2022-09-12T16:01:34.712Z,0.43
2022-09-12T16:04:05.062Z,0.60
2022-09-12T16:06:37.387Z,0.30
2022-09-12T16:09:08.647Z,0.60
2022-09-12T16:11:38.065Z,0.43
2022-09-12T16:14:08.750Z,0.55
2022-09-12T16:16:36.920Z,0.50
2022-09-12T16:19:06.414Z,0.50
2022-09-12T16:21:34.427Z,0.75
2022-09-12T16:24:02.431Z,0.50
2022-09-12T16:26:30.521Z,0.60
2022-09-12T16:28:59.217Z,0.77
2022-09-12T16:31:29.099Z,0.47
2022-09-12T16:33:57.141Z,0.70
2022-09-12T16:36:26.557Z,0.90
2022-09-12T16:38:55.821Z,0.43
2022-09-12T16:41:26.477Z,0.30
2022-09-12T16:43:55.103Z,0.45
2022-09-12T16:46:25.223Z,0.40
2022-09-12T16:48:55.044Z,0.30
2022-09-12T16:51:26.065Z,0.47
2022-09-12T16:53:56.605Z,0.20
2022-09-12T16:56:25.493Z,0.40
2022-09-12T16:58:53.771Z,0.32
2022-09-12T17:01:24.317Z,0.60
2022-09-12T17:03:54.640Z,0.43
2022-09-12T17:06:22.680Z,0.40
2022-09-12T17:08:53.295Z,0.30
2022-09-12T17:11:25.271Z,0.50
2022-09-12T17:14:11.651Z,0.68
2022-09-12T17:16:41.937Z,0.30
2022-09-12T17:19:14.660Z,0.50
2022-09-12T17:21:42.812Z,0.50
2022-09-12T17:24:10.906Z,0.73
2022-09-12T17:26:40.361Z,0.70
2022-09-12T17:29:08.353Z,0.55
2022-09-12T17:31:36.531Z,0.50
2022-09-12T17:34:05.007Z,0.60
2022-09-12T17:36:33.237Z,0.95
2022-09-12T17:39:03.626Z,0.38
2022-09-12T17:41:33.017Z,0.65
2022-09-12T17:44:03.654Z,0.50
2022-09-12T17:46:35.036Z,0.70
2022-09-12T17:49:04.740Z,0.68
2022-09-12T17:51:32.785Z,0.70
2022-09-12T17:54:02.671Z,0.68
2022-09-12T17:56:32.343Z,0.70
2022-09-12T17:59:02.797Z,0.55
2022-09-12T18:01:48.822Z,0.85
2022-09-12T18:04:17.433Z,0.57
2022-09-12T18:06:48.224Z,0.60
2022-09-12T18:09:18.459Z,0.60
2022-09-12T18:11:46.959Z,0.70
2022-09-12T18:14:17.555Z,0.70
2022-09-12T18:16:46.004Z,0.43
2022-09-12T18:19:14.375Z,0.43
2022-09-12T18:21:42.636Z,0.77
2022-09-12T18:24:11.337Z,0.57
2022-09-12T18:26:39.396Z,0.93
2022-09-12T18:29:08.314Z,0.60
2022-09-12T18:31:37.906Z,0.60
2022-09-12T18:34:06.326Z,0.70
2022-09-12T18:36:34.325Z,0.68
2022-09-12T18:39:02.292Z,0.57
2022-09-12T18:41:30.322Z,0.90
2022-09-12T18:43:59.801Z,0.60
2022-09-12T18:46:29.072Z,0.57
2022-09-12T18:48:59.656Z,0.68
2022-09-12T18:51:31.678Z,0.77
2022-09-12T18:54:01.524Z,0.88
2022-09-12T18:56:33.046Z,0.50
2022-09-12T18:59:02.792Z,0.45
2022-09-12T19:01:32.741Z,0.65
2022-09-12T19:04:04.766Z,0.65
2022-09-12T19:06:34.985Z,0.63
2022-09-12T19:09:07.591Z,0.73
2022-09-12T19:11:37.137Z,0.50
2022-09-12T19:14:05.690Z,0.95
2022-09-12T19:16:33.752Z,0.47
2022-09-12T19:19:03.726Z,0.43
2022-09-12T19:21:33.123Z,0.80
2022-09-12T19:24:02.781Z,1.08
2022-09-12T19:26:31.056Z,1.00
2022-09-12T19:28:59.441Z,0.52
2022-09-12T19:31:27.691Z,0.60
2022-09-12T19:34:00.949Z,1.00
2022-09-12T19:36:47.296Z,0.80
2022-09-12T19:39:16.573Z,0.60
2022-09-12T19:41:44.719Z,0.90
2022-09-12T19:44:12.924Z,0.47
2022-09-12T19:46:41.854Z,0.90
2022-09-12T19:49:11.592Z,0.55
2022-09-12T19:51:41.338Z,0.70
2022-09-12T19:54:09.662Z,0.80
2022-09-12T19:56:37.694Z,0.85
2022-09-12T19:59:05.635Z,0.65
2022-09-12T20:01:34.853Z,0.50
2022-09-12T20:04:03.536Z,0.47
2022-09-12T20:06:31.578Z,0.52
2022-09-12T20:09:00.936Z,0.88
2022-09-12T20:11:29.270Z,0.73
2022-09-12T20:13:57.220Z,1.10
2022-09-12T20:16:29.386Z,0.50
2022-09-12T20:18:59.239Z,0.57
2022-09-12T20:21:32.140Z,0.75
2022-09-12T20:24:06.889Z,0.68
2022-09-12T20:26:35.521Z,0.47
2022-09-12T20:29:04.836Z,0.50
2022-09-12T20:31:33.597Z,0.45
2022-09-12T20:34:01.740Z,0.47
2022-09-12T20:36:29.978Z,0.77
2022-09-12T20:39:00.184Z,0.75
2022-09-12T20:41:32.060Z,0.77
2022-09-12T20:44:00.288Z,0.82
2022-09-12T20:46:29.639Z,0.63
2022-09-12T20:48:58.613Z,0.77
2022-09-12T20:51:29.777Z,0.82
2022-09-12T20:53:58.872Z,0.45
2022-09-12T20:56:28.554Z,0.60
2022-09-12T20:58:58.016Z,0.45
2022-09-12T21:01:26.968Z,0.50
2022-09-12T21:03:55.249Z,0.50
2022-09-12T21:06:23.533Z,0.73
2022-09-12T21:08:51.882Z,0.52
2022-09-12T21:11:20.683Z,0.52
2022-09-12T21:13:48.712Z,0.73
2022-09-12T21:16:19.814Z,0.57
2022-09-12T21:18:48.655Z,0.77
2022-09-12T21:21:17.175Z,0.47
2022-09-12T21:23:45.231Z,0.50
2022-09-12T21:26:13.299Z,0.90
2022-09-12T21:28:41.370Z,0.80
2022-09-12T21:31:09.812Z,0.50
2022-09-12T21:33:39.300Z,0.82
2022-09-12T21:36:08.424Z,0.50
2022-09-12T21:38:36.636Z,1.02
2022-09-12T21:41:09.676Z,0.40
2022-09-12T21:43:38.657Z,0.60
2022-09-12T21:46:08.461Z,0.90
2022-09-12T21:48:36.965Z,0.90
2022-09-12T21:51:06.964Z,0.60
2022-09-12T21:53:35.001Z,0.82
2022-09-12T21:56:03.781Z,0.70
2022-09-12T21:58:31.834Z,0.90
2022-09-12T22:01:00.454Z,0.98
2022-09-12T22:03:29.143Z,0.80
2022-09-12T22:06:01.616Z,0.80
2022-09-12T22:08:33.284Z,1.05
2022-09-12T22:11:02.730Z,0.57
2022-09-12T22:13:32.265Z,0.55
2022-09-12T22:16:00.571Z,0.63
2022-09-12T22:18:28.683Z,0.73
2022-09-12T22:21:01.251Z,0.75
2022-09-12T22:23:48.279Z,0.80
2022-09-12T22:26:16.521Z,0.70
2022-09-12T22:28:45.145Z,0.60
2022-09-12T22:31:14.185Z,0.82
2022-09-12T22:33:42.413Z,0.73
2022-09-12T22:36:11.549Z,0.63
2022-09-12T22:38:41.073Z,0.70
2022-09-12T22:41:11.333Z,0.98
2022-09-12T22:43:39.539Z,0.70
2022-09-12T22:46:08.631Z,0.60
2022-09-12T22:48:37.450Z,1.30
2022-09-12T22:51:06.062Z,1.30
2022-09-12T22:53:34.157Z,0.90
2022-09-12T22:56:05.160Z,0.80
2022-09-12T22:58:33.673Z,0.82
2022-09-12T23:01:01.732Z,0.52
2022-09-12T23:03:29.874Z,1.13
2022-09-12T23:05:57.901Z,0.70
2022-09-12T23:08:29.542Z,0.60
2022-09-12T23:11:06.507Z,0.88
2022-09-12T23:13:34.596Z,0.60
2022-09-12T23:16:04.408Z,1.02
2022-09-12T23:18:34.709Z,1.05
2022-09-12T23:21:05.276Z,0.88
2022-09-12T23:23:33.730Z,0.90
2022-09-12T23:26:45.617Z,0.68
2022-09-12T23:29:13.632Z,0.60
2022-09-12T23:31:41.744Z,1.00
2022-09-12T23:34:11.171Z,0.73
2022-09-12T23:36:39.299Z,0.77
2022-09-12T23:39:07.309Z,0.80
2022-09-12T23:41:35.277Z,1.27
2022-09-12T23:44:04.764Z,1.05
2022-09-12T23:46:32.769Z,0.90
2022-09-12T23:49:00.784Z,0.90
2022-09-12T23:51:28.748Z,1.27
2022-09-12T23:53:56.732Z,1.17
2022-09-12T23:56:24.684Z,0.90
2022-09-12T23:58:52.760Z,0.68
